sensor_id;sensor_type;location;lat;lon;timestamp;temperature;humidity
78461;SHT31;67755;51.986;5.696;2023-03-19T00:01:46;15.0;64.2
78461;SHT31;67755;51.986;5.696;2023-03-19T00:04:18;15.0;64.3
78461;SHT31;67755;51.986;5.696;2023-03-19T00:06:50;15.0;64.4
78461;SHT31;67755;51.986;5.696;2023-03-19T00:09:20;15.0;64.4
78461;SHT31;67755;51.986;5.696;2023-03-19T00:11:50;14.9;64.7
78461;SHT31;67755;51.986;5.696;2023-03-19T00:14:20;14.9;64.7
78461;SHT31;67755;51.986;5.696;2023-03-19T00:16:50;14.9;64.8
78461;SHT31;67755;51.986;5.696;2023-03-19T00:19:20;14.9;64.7
78461;SHT31;67755;51.986;5.696;2023-03-19T00:21:49;14.9;64.9
78461;SHT31;67755;51.986;5.696;2023-03-19T00:24:19;14.9;64.7
78461;SHT31;67755;51.986;5.696;2023-03-19T00:26:51;14.9;64.8
78461;SHT31;67755;51.986;5.696;2023-03-19T00:29:20;14.9;64.9
78461;SHT31;67755;51.986;5.696;2023-03-19T00:31:51;14.9;65.0
78461;SHT31;67755;51.986;5.696;2023-03-19T00:34:20;14.9;64.9
78461;SHT31;67755;51.986;5.696;2023-03-19T00:36:51;14.9;64.9
78461;SHT31;67755;51.986;5.696;2023-03-19T00:39:22;14.9;65.0
78461;SHT31;67755;51.986;5.696;2023-03-19T00:41:52;14.9;65.0
78461;SHT31;67755;51.986;5.696;2023-03-19T00:44:21;14.9;64.7
78461;SHT31;67755;51.986;5.696;2023-03-19T00:46:51;14.9;64.5
78461;SHT31;67755;51.986;5.696;2023-03-19T00:49:20;14.9;64.7
78461;SHT31;67755;51.986;5.696;2023-03-19T00:51:50;14.9;64.6
78461;SHT31;67755;51.986;5.696;2023-03-19T00:54:20;14.9;64.7
78461;SHT31;67755;51.986;5.696;2023-03-19T00:56:49;14.9;64.6
78461;SHT31;67755;51.986;5.696;2023-03-19T00:59:19;14.9;64.6
78461;SHT31;67755;51.986;5.696;2023-03-19T01:01:49;14.9;64.5
78461;SHT31;67755;51.986;5.696;2023-03-19T01:04:19;14.9;64.2
78461;SHT31;67755;51.986;5.696;2023-03-19T01:06:49;14.9;63.9
78461;SHT31;67755;51.986;5.696;2023-03-19T01:09:19;14.9;63.8
78461;SHT31;67755;51.986;5.696;2023-03-19T01:11:49;14.9;63.7
78461;SHT31;67755;51.986;5.696;2023-03-19T01:14:18;14.9;63.6
78461;SHT31;67755;51.986;5.696;2023-03-19T01:16:48;14.9;63.5
78461;SHT31;67755;51.986;5.696;2023-03-19T01:19:18;14.9;63.5
78461;SHT31;67755;51.986;5.696;2023-03-19T01:21:48;14.8;63.3
78461;SHT31;67755;51.986;5.696;2023-03-19T01:24:18;14.8;63.3
78461;SHT31;67755;51.986;5.696;2023-03-19T01:26:48;14.8;63.5
78461;SHT31;67755;51.986;5.696;2023-03-19T01:29:18;14.8;63.4
78461;SHT31;67755;51.986;5.696;2023-03-19T01:31:47;14.8;63.5
78461;SHT31;67755;51.986;5.696;2023-03-19T01:34:17;14.8;63.6
78461;SHT31;67755;51.986;5.696;2023-03-19T01:36:47;14.7;63.6
78461;SHT31;67755;51.986;5.696;2023-03-19T01:39:17;14.7;63.6
78461;SHT31;67755;51.986;5.696;2023-03-19T01:41:47;14.7;63.6
78461;SHT31;67755;51.986;5.696;2023-03-19T01:44:28;14.7;63.7
78461;SHT31;67755;51.986;5.696;2023-03-19T01:47:02;14.7;63.5
78461;SHT31;67755;51.986;5.696;2023-03-19T01:49:33;14.7;63.5
78461;SHT31;67755;51.986;5.696;2023-03-19T01:52:06;14.6;63.5
78461;SHT31;67755;51.986;5.696;2023-03-19T01:54:36;14.6;63.6
78461;SHT31;67755;51.986;5.696;2023-03-19T01:57:10;14.6;63.5
78461;SHT31;67755;51.986;5.696;2023-03-19T01:59:43;14.6;63.5
78461;SHT31;67755;51.986;5.696;2023-03-19T02:02:20;14.6;63.9
78461;SHT31;67755;51.986;5.696;2023-03-19T02:04:55;14.6;64.1
78461;SHT31;67755;51.986;5.696;2023-03-19T02:07:26;14.6;64.1
78461;SHT31;67755;51.986;5.696;2023-03-19T02:09:57;14.6;64.2
78461;SHT31;67755;51.986;5.696;2023-03-19T02:12:30;14.6;64.3
78461;SHT31;67755;51.986;5.696;2023-03-19T02:15:00;14.6;64.5
78461;SHT31;67755;51.986;5.696;2023-03-19T02:17:30;14.6;64.6
78461;SHT31;67755;51.986;5.696;2023-03-19T02:20:09;14.6;64.6
78461;SHT31;67755;51.986;5.696;2023-03-19T02:22:47;14.6;64.8
78461;SHT31;67755;51.986;5.696;2023-03-19T02:25:26;14.6;64.7
78461;SHT31;67755;51.986;5.696;2023-03-19T02:27:58;14.6;64.7
78461;SHT31;67755;51.986;5.696;2023-03-19T02:30:31;14.6;64.7
78461;SHT31;67755;51.986;5.696;2023-03-19T02:33:02;14.6;64.8
78461;SHT31;67755;51.986;5.696;2023-03-19T02:35:37;14.6;64.8
78461;SHT31;67755;51.986;5.696;2023-03-19T02:38:07;14.6;64.8
78461;SHT31;67755;51.986;5.696;2023-03-19T02:40:42;14.6;64.7
78461;SHT31;67755;51.986;5.696;2023-03-19T02:43:13;14.6;64.5
78461;SHT31;67755;51.986;5.696;2023-03-19T02:45:42;14.5;64.4
78461;SHT31;67755;51.986;5.696;2023-03-19T02:48:14;14.5;64.2
78461;SHT31;67755;51.986;5.696;2023-03-19T02:50:44;14.5;64.0
78461;SHT31;67755;51.986;5.696;2023-03-19T02:53:14;14.5;64.0
78461;SHT31;67755;51.986;5.696;2023-03-19T02:55:44;14.5;64.0
78461;SHT31;67755;51.986;5.696;2023-03-19T02:58:14;14.5;64.0
78461;SHT31;67755;51.986;5.696;2023-03-19T03:00:44;14.5;64.3
78461;SHT31;67755;51.986;5.696;2023-03-19T03:03:17;14.5;64.5
78461;SHT31;67755;51.986;5.696;2023-03-19T03:05:47;14.5;64.6
78461;SHT31;67755;51.986;5.696;2023-03-19T03:08:16;14.5;64.8
78461;SHT31;67755;51.986;5.696;2023-03-19T03:10:47;14.5;64.7
78461;SHT31;67755;51.986;5.696;2023-03-19T03:13:17;14.5;64.8
78461;SHT31;67755;51.986;5.696;2023-03-19T03:15:46;14.5;64.9
78461;SHT31;67755;51.986;5.696;2023-03-19T03:18:16;14.5;64.9
78461;SHT31;67755;51.986;5.696;2023-03-19T03:20:46;14.5;65.0
78461;SHT31;67755;51.986;5.696;2023-03-19T03:23:15;14.5;65.0
78461;SHT31;67755;51.986;5.696;2023-03-19T03:25:48;14.5;64.9
78461;SHT31;67755;51.986;5.696;2023-03-19T03:28:17;14.4;64.9
78461;SHT31;67755;51.986;5.696;2023-03-19T03:30:47;14.4;65.0
78461;SHT31;67755;51.986;5.696;2023-03-19T03:33:17;14.4;65.0
78461;SHT31;67755;51.986;5.696;2023-03-19T03:35:48;14.4;65.0
78461;SHT31;67755;51.986;5.696;2023-03-19T03:38:18;14.4;65.0
78461;SHT31;67755;51.986;5.696;2023-03-19T03:40:51;14.4;65.0
78461;SHT31;67755;51.986;5.696;2023-03-19T03:43:21;14.4;65.0
78461;SHT31;67755;51.986;5.696;2023-03-19T03:45:53;14.4;64.9
78461;SHT31;67755;51.986;5.696;2023-03-19T03:48:22;14.4;64.9
78461;SHT31;67755;51.986;5.696;2023-03-19T03:50:53;14.4;64.8
78461;SHT31;67755;51.986;5.696;2023-03-19T03:53:24;14.4;64.8
78461;SHT31;67755;51.986;5.696;2023-03-19T03:55:53;14.4;64.5
78461;SHT31;67755;51.986;5.696;2023-03-19T03:58:25;14.4;64.6
78461;SHT31;67755;51.986;5.696;2023-03-19T04:00:55;14.4;64.3
78461;SHT31;67755;51.986;5.696;2023-03-19T04:03:25;14.4;64.3
78461;SHT31;67755;51.986;5.696;2023-03-19T04:05:55;14.4;64.1
78461;SHT31;67755;51.986;5.696;2023-03-19T04:08:25;14.4;64.1
78461;SHT31;67755;51.986;5.696;2023-03-19T04:10:54;14.4;64.1
78461;SHT31;67755;51.986;5.696;2023-03-19T04:13:24;14.4;64.3
78461;SHT31;67755;51.986;5.696;2023-03-19T04:15:56;14.4;64.4
78461;SHT31;67755;51.986;5.696;2023-03-19T04:18:26;14.3;64.4
78461;SHT31;67755;51.986;5.696;2023-03-19T04:20:56;14.3;64.4
78461;SHT31;67755;51.986;5.696;2023-03-19T04:23:28;14.3;64.5
78461;SHT31;67755;51.986;5.696;2023-03-19T04:26:00;14.3;64.6
78461;SHT31;67755;51.986;5.696;2023-03-19T04:28:30;14.3;64.8
78461;SHT31;67755;51.986;5.696;2023-03-19T04:31:01;14.3;64.9
78461;SHT31;67755;51.986;5.696;2023-03-19T04:33:33;14.3;64.7
78461;SHT31;67755;51.986;5.696;2023-03-19T04:36:03;14.3;64.8
78461;SHT31;67755;51.986;5.696;2023-03-19T04:38:35;14.3;65.2
78461;SHT31;67755;51.986;5.696;2023-03-19T04:41:05;14.3;65.1
78461;SHT31;67755;51.986;5.696;2023-03-19T04:43:35;14.2;65.1
78461;SHT31;67755;51.986;5.696;2023-03-19T04:46:05;14.2;65.1
78461;SHT31;67755;51.986;5.696;2023-03-19T04:48:35;14.2;65.0
78461;SHT31;67755;51.986;5.696;2023-03-19T04:51:07;14.2;65.0
78461;SHT31;67755;51.986;5.696;2023-03-19T04:53:37;14.2;64.9
78461;SHT31;67755;51.986;5.696;2023-03-19T04:56:07;14.2;65.5
78461;SHT31;67755;51.986;5.696;2023-03-19T04:58:37;14.2;65.1
78461;SHT31;67755;51.986;5.696;2023-03-19T05:01:07;14.2;65.1
78461;SHT31;67755;51.986;5.696;2023-03-19T05:03:38;14.2;64.9
78461;SHT31;67755;51.986;5.696;2023-03-19T05:06:07;14.2;64.7
78461;SHT31;67755;51.986;5.696;2023-03-19T05:08:38;14.1;64.4
78461;SHT31;67755;51.986;5.696;2023-03-19T05:11:09;14.1;64.7
78461;SHT31;67755;51.986;5.696;2023-03-19T05:13:39;14.1;64.4
78461;SHT31;67755;51.986;5.696;2023-03-19T05:16:09;14.1;64.2
78461;SHT31;67755;51.986;5.696;2023-03-19T05:18:39;14.1;64.4
78461;SHT31;67755;51.986;5.696;2023-03-19T05:21:11;14.1;64.3
78461;SHT31;67755;51.986;5.696;2023-03-19T05:23:42;14.1;64.1
78461;SHT31;67755;51.986;5.696;2023-03-19T05:26:12;14.1;64.2
78461;SHT31;67755;51.986;5.696;2023-03-19T05:28:42;14.1;64.5
78461;SHT31;67755;51.986;5.696;2023-03-19T05:31:13;14.1;64.4
78461;SHT31;67755;51.986;5.696;2023-03-19T05:33:43;14.0;64.3
78461;SHT31;67755;51.986;5.696;2023-03-19T05:36:14;14.0;64.6
78461;SHT31;67755;51.986;5.696;2023-03-19T05:38:44;14.0;64.3
78461;SHT31;67755;51.986;5.696;2023-03-19T05:41:14;14.0;64.3
78461;SHT31;67755;51.986;5.696;2023-03-19T05:43:43;14.0;64.3
78461;SHT31;67755;51.986;5.696;2023-03-19T05:46:13;14.0;64.3
78461;SHT31;67755;51.986;5.696;2023-03-19T05:48:43;14.0;64.3
78461;SHT31;67755;51.986;5.696;2023-03-19T05:51:12;14.0;64.6
78461;SHT31;67755;51.986;5.696;2023-03-19T05:53:42;14.0;64.7
78461;SHT31;67755;51.986;5.696;2023-03-19T05:56:12;14.0;64.7
78461;SHT31;67755;51.986;5.696;2023-03-19T05:58:42;14.0;64.7
78461;SHT31;67755;51.986;5.696;2023-03-19T06:01:12;14.0;64.9
78461;SHT31;67755;51.986;5.696;2023-03-19T06:03:42;14.0;64.9
78461;SHT31;67755;51.986;5.696;2023-03-19T06:06:12;14.0;65.2
78461;SHT31;67755;51.986;5.696;2023-03-19T06:08:42;14.0;65.3
78461;SHT31;67755;51.986;5.696;2023-03-19T06:11:11;14.0;65.3
78461;SHT31;67755;51.986;5.696;2023-03-19T06:13:41;14.0;65.6
78461;SHT31;67755;51.986;5.696;2023-03-19T06:16:13;14.0;65.7
78461;SHT31;67755;51.986;5.696;2023-03-19T06:18:43;14.0;66.1
78461;SHT31;67755;51.986;5.696;2023-03-19T06:21:13;14.0;66.1
78461;SHT31;67755;51.986;5.696;2023-03-19T06:23:43;14.0;66.2
78461;SHT31;67755;51.986;5.696;2023-03-19T06:26:12;14.0;66.4
78461;SHT31;67755;51.986;5.696;2023-03-19T06:28:42;14.0;66.5
78461;SHT31;67755;51.986;5.696;2023-03-19T06:31:12;14.0;66.7
78461;SHT31;67755;51.986;5.696;2023-03-19T06:33:42;14.0;66.7
78461;SHT31;67755;51.986;5.696;2023-03-19T06:36:11;14.0;66.5
78461;SHT31;67755;51.986;5.696;2023-03-19T06:38:41;14.0;66.5
78461;SHT31;67755;51.986;5.696;2023-03-19T06:41:11;14.0;66.7
78461;SHT31;67755;51.986;5.696;2023-03-19T06:43:41;14.0;66.8
78461;SHT31;67755;51.986;5.696;2023-03-19T06:46:11;14.0;66.9
78461;SHT31;67755;51.986;5.696;2023-03-19T06:48:40;14.0;66.9
78461;SHT31;67755;51.986;5.696;2023-03-19T06:51:12;14.0;67.0
78461;SHT31;67755;51.986;5.696;2023-03-19T06:53:41;14.0;66.7
78461;SHT31;67755;51.986;5.696;2023-03-19T06:56:11;14.1;66.7
78461;SHT31;67755;51.986;5.696;2023-03-19T06:58:42;14.1;66.6
78461;SHT31;67755;51.986;5.696;2023-03-19T07:01:11;14.1;66.6
78461;SHT31;67755;51.986;5.696;2023-03-19T07:03:43;14.1;66.6
78461;SHT31;67755;51.986;5.696;2023-03-19T07:06:12;14.1;66.5
78461;SHT31;67755;51.986;5.696;2023-03-19T07:08:42;14.1;66.8
78461;SHT31;67755;51.986;5.696;2023-03-19T07:11:13;14.1;66.7
78461;SHT31;67755;51.986;5.696;2023-03-19T07:13:46;14.2;66.6
78461;SHT31;67755;51.986;5.696;2023-03-19T07:16:15;14.2;66.6
78461;SHT31;67755;51.986;5.696;2023-03-19T07:18:45;14.3;66.4
78461;SHT31;67755;51.986;5.696;2023-03-19T07:21:15;14.4;66.4
78461;SHT31;67755;51.986;5.696;2023-03-19T07:23:45;14.5;66.2
78461;SHT31;67755;51.986;5.696;2023-03-19T07:26:17;14.5;65.6
78461;SHT31;67755;51.986;5.696;2023-03-19T07:28:49;14.6;65.2
78461;SHT31;67755;51.986;5.696;2023-03-19T07:31:18;14.7;65.4
78461;SHT31;67755;51.986;5.696;2023-03-19T07:33:50;14.7;65.0
78461;SHT31;67755;51.986;5.696;2023-03-19T07:36:22;14.8;64.4
78461;SHT31;67755;51.986;5.696;2023-03-19T07:38:51;14.9;64.8
78461;SHT31;67755;51.986;5.696;2023-03-19T07:41:23;14.9;63.9
78461;SHT31;67755;51.986;5.696;2023-03-19T07:43:54;15.0;63.5
78461;SHT31;67755;51.986;5.696;2023-03-19T07:46:23;15.0;63.7
78461;SHT31;67755;51.986;5.696;2023-03-19T07:48:53;15.1;63.2
78461;SHT31;67755;51.986;5.696;2023-03-19T07:51:22;15.1;63.5
78461;SHT31;67755;51.986;5.696;2023-03-19T07:53:52;15.2;63.0
78461;SHT31;67755;51.986;5.696;2023-03-19T07:56:22;15.2;62.8
78461;SHT31;67755;51.986;5.696;2023-03-19T07:58:52;15.3;62.1
78461;SHT31;67755;51.986;5.696;2023-03-19T08:01:22;15.3;61.7
78461;SHT31;67755;51.986;5.696;2023-03-19T08:03:52;15.4;61.7
78461;SHT31;67755;51.986;5.696;2023-03-19T08:06:22;15.4;61.1
78461;SHT31;67755;51.986;5.696;2023-03-19T08:08:52;15.4;61.5
78461;SHT31;67755;51.986;5.696;2023-03-19T08:11:22;15.4;60.4
78461;SHT31;67755;51.986;5.696;2023-03-19T08:13:52;15.5;61.0
78461;SHT31;67755;51.986;5.696;2023-03-19T08:16:22;15.5;61.1
78461;SHT31;67755;51.986;5.696;2023-03-19T08:18:52;15.5;60.8
78461;SHT31;67755;51.986;5.696;2023-03-19T08:21:22;15.5;60.7
78461;SHT31;67755;51.986;5.696;2023-03-19T08:23:53;15.6;60.3
78461;SHT31;67755;51.986;5.696;2023-03-19T08:26:23;15.6;60.3
78461;SHT31;67755;51.986;5.696;2023-03-19T08:28:52;15.6;60.2
78461;SHT31;67755;51.986;5.696;2023-03-19T08:31:22;15.6;60.5
78461;SHT31;67755;51.986;5.696;2023-03-19T08:33:54;15.6;59.8
78461;SHT31;67755;51.986;5.696;2023-03-19T08:36:26;15.6;60.1
78461;SHT31;67755;51.986;5.696;2023-03-19T08:38:56;15.6;60.1
78461;SHT31;67755;51.986;5.696;2023-03-19T08:41:26;15.7;59.8
78461;SHT31;67755;51.986;5.696;2023-03-19T08:43:57;15.7;59.4
78461;SHT31;67755;51.986;5.696;2023-03-19T08:46:29;15.7;59.4
78461;SHT31;67755;51.986;5.696;2023-03-19T08:49:00;15.7;59.4
78461;SHT31;67755;51.986;5.696;2023-03-19T08:51:29;15.7;58.4
78461;SHT31;67755;51.986;5.696;2023-03-19T08:54:01;15.7;58.6
78461;SHT31;67755;51.986;5.696;2023-03-19T08:56:31;15.7;58.8
78461;SHT31;67755;51.986;5.696;2023-03-19T08:59:00;15.7;59.4
78461;SHT31;67755;51.986;5.696;2023-03-19T09:01:32;15.8;59.5
78461;SHT31;67755;51.986;5.696;2023-03-19T09:04:02;15.8;59.9
78461;SHT31;67755;51.986;5.696;2023-03-19T09:06:34;15.8;58.9
78461;SHT31;67755;51.986;5.696;2023-03-19T09:09:03;15.8;58.9
78461;SHT31;67755;51.986;5.696;2023-03-19T09:11:33;15.8;58.4
78461;SHT31;67755;51.986;5.696;2023-03-19T09:14:03;15.9;59.3
78461;SHT31;67755;51.986;5.696;2023-03-19T09:16:33;15.9;58.9
78461;SHT31;67755;51.986;5.696;2023-03-19T09:19:03;15.9;59.7
78461;SHT31;67755;51.986;5.696;2023-03-19T09:21:34;16.0;58.4
78461;SHT31;67755;51.986;5.696;2023-03-19T09:24:04;16.0;57.7
78461;SHT31;67755;51.986;5.696;2023-03-19T09:26:33;16.1;58.2
78461;SHT31;67755;51.986;5.696;2023-03-19T09:29:05;16.1;58.8
78461;SHT31;67755;51.986;5.696;2023-03-19T09:31:36;16.2;59.0
78461;SHT31;67755;51.986;5.696;2023-03-19T09:34:05;16.3;59.3
78461;SHT31;67755;51.986;5.696;2023-03-19T09:36:36;16.4;58.9
78461;SHT31;67755;51.986;5.696;2023-03-19T09:39:06;16.4;58.8
78461;SHT31;67755;51.986;5.696;2023-03-19T09:41:42;16.5;57.2
78461;SHT31;67755;51.986;5.696;2023-03-19T09:44:20;16.6;56.5
78461;SHT31;67755;51.986;5.696;2023-03-19T09:46:59;16.7;56.2
78461;SHT31;67755;51.986;5.696;2023-03-19T09:49:39;16.7;56.2
78461;SHT31;67755;51.986;5.696;2023-03-19T09:52:23;16.8;55.7
78461;SHT31;67755;51.986;5.696;2023-03-19T09:54:59;16.8;55.7
78461;SHT31;67755;51.986;5.696;2023-03-19T09:57:30;16.9;55.0
78461;SHT31;67755;51.986;5.696;2023-03-19T09:59:59;16.9;55.8
78461;SHT31;67755;51.986;5.696;2023-03-19T10:02:40;16.9;55.0
78461;SHT31;67755;51.986;5.696;2023-03-19T10:05:24;17.0;55.3
78461;SHT31;67755;51.986;5.696;2023-03-19T10:08:07;17.0;55.3
78461;SHT31;67755;51.986;5.696;2023-03-19T10:10:49;17.0;56.2
78461;SHT31;67755;51.986;5.696;2023-03-19T10:13:32;17.0;55.6
78461;SHT31;67755;51.986;5.696;2023-03-19T10:16:15;17.0;54.9
78461;SHT31;67755;51.986;5.696;2023-03-19T10:18:49;17.0;55.9
78461;SHT31;67755;51.986;5.696;2023-03-19T10:21:25;17.0;56.3
78461;SHT31;67755;51.986;5.696;2023-03-19T10:24:02;17.1;55.8
78461;SHT31;67755;51.986;5.696;2023-03-19T10:26:34;17.1;56.0
78461;SHT31;67755;51.986;5.696;2023-03-19T10:29:06;17.1;55.3
78461;SHT31;67755;51.986;5.696;2023-03-19T10:31:42;17.1;54.5
78461;SHT31;67755;51.986;5.696;2023-03-19T10:34:29;17.1;54.8
78461;SHT31;67755;51.986;5.696;2023-03-19T10:37:04;17.1;54.5
78461;SHT31;67755;51.986;5.696;2023-03-19T10:39:38;17.1;54.5
78461;SHT31;67755;51.986;5.696;2023-03-19T10:43:03;17.0;55.3
78461;SHT31;67755;51.986;5.696;2023-03-19T10:45:36;17.0;55.0
78461;SHT31;67755;51.986;5.696;2023-03-19T10:48:14;17.0;54.8
78461;SHT31;67755;51.986;5.696;2023-03-19T10:50:49;17.0;54.5
78461;SHT31;67755;51.986;5.696;2023-03-19T10:53:30;17.0;54.8
78461;SHT31;67755;51.986;5.696;2023-03-19T10:56:05;17.0;54.6
78461;SHT31;67755;51.986;5.696;2023-03-19T10:58:36;17.1;55.2
78461;SHT31;67755;51.986;5.696;2023-03-19T11:01:09;17.1;55.1
78461;SHT31;67755;51.986;5.696;2023-03-19T11:03:50;17.1;54.7
78461;SHT31;67755;51.986;5.696;2023-03-19T11:06:25;17.2;54.9
78461;SHT31;67755;51.986;5.696;2023-03-19T11:08:59;17.2;55.1
78461;SHT31;67755;51.986;5.696;2023-03-19T11:11:43;17.3;54.5
78461;SHT31;67755;51.986;5.696;2023-03-19T11:14:17;17.3;55.0
78461;SHT31;67755;51.986;5.696;2023-03-19T11:16:56;17.3;55.3
78461;SHT31;67755;51.986;5.696;2023-03-19T11:19:29;17.3;54.8
78461;SHT31;67755;51.986;5.696;2023-03-19T11:22:12;17.3;55.0
78461;SHT31;67755;51.986;5.696;2023-03-19T11:24:51;17.4;54.7
78461;SHT31;67755;51.986;5.696;2023-03-19T11:27:27;17.4;54.3
78461;SHT31;67755;51.986;5.696;2023-03-19T11:29:58;17.4;54.5
78461;SHT31;67755;51.986;5.696;2023-03-19T11:32:54;17.4;54.5
78461;SHT31;67755;51.986;5.696;2023-03-19T11:35:29;17.4;54.2
78461;SHT31;67755;51.986;5.696;2023-03-19T11:38:02;17.4;53.5
78461;SHT31;67755;51.986;5.696;2023-03-19T11:40:43;17.4;53.8
78461;SHT31;67755;51.986;5.696;2023-03-19T11:43:40;17.4;53.9
78461;SHT31;67755;51.986;5.696;2023-03-19T11:46:27;17.3;54.5
78461;SHT31;67755;51.986;5.696;2023-03-19T11:50:29;17.3;54.3
78461;SHT31;67755;51.986;5.696;2023-03-19T11:53:13;17.2;54.8
78461;SHT31;67755;51.986;5.696;2023-03-19T11:55:53;17.2;55.0
78461;SHT31;67755;51.986;5.696;2023-03-19T12:00:21;17.2;55.1
78461;SHT31;67755;51.986;5.696;2023-03-19T12:04:30;17.2;54.5
78461;SHT31;67755;51.986;5.696;2023-03-19T12:07:16;17.1;54.7
78461;SHT31;67755;51.986;5.696;2023-03-19T12:09:58;17.1;55.0
78461;SHT31;67755;51.986;5.696;2023-03-19T12:12:35;17.1;54.7
78461;SHT31;67755;51.986;5.696;2023-03-19T12:15:19;17.1;55.0
78461;SHT31;67755;51.986;5.696;2023-03-19T12:17:59;17.1;54.8
78461;SHT31;67755;51.986;5.696;2023-03-19T12:20:41;17.1;55.2
78461;SHT31;67755;51.986;5.696;2023-03-19T12:23:29;17.1;54.4
78461;SHT31;67755;51.986;5.696;2023-03-19T12:26:05;17.1;54.2
78461;SHT31;67755;51.986;5.696;2023-03-19T12:28:41;17.1;54.3
78461;SHT31;67755;51.986;5.696;2023-03-19T12:32:25;17.0;55.2
78461;SHT31;67755;51.986;5.696;2023-03-19T12:35:03;17.0;54.9
78461;SHT31;67755;51.986;5.696;2023-03-19T12:37:43;17.0;55.2
78461;SHT31;67755;51.986;5.696;2023-03-19T12:40:25;17.0;55.1
78461;SHT31;67755;51.986;5.696;2023-03-19T12:42:58;17.0;55.7
78461;SHT31;67755;51.986;5.696;2023-03-19T12:45:33;17.1;55.2
78461;SHT31;67755;51.986;5.696;2023-03-19T12:48:11;17.1;55.7
78461;SHT31;67755;51.986;5.696;2023-03-19T12:50:48;17.1;55.5
78461;SHT31;67755;51.986;5.696;2023-03-19T12:53:32;17.2;54.6
78461;SHT31;67755;51.986;5.696;2023-03-19T12:56:09;17.2;55.0
78461;SHT31;67755;51.986;5.696;2023-03-19T12:58:52;17.3;54.2
78461;SHT31;67755;51.986;5.696;2023-03-19T13:01:27;17.3;54.0
78461;SHT31;67755;51.986;5.696;2023-03-19T13:04:05;17.4;55.5
78461;SHT31;67755;51.986;5.696;2023-03-19T13:06:41;17.4;55.1
78461;SHT31;67755;51.986;5.696;2023-03-19T13:09:19;17.5;54.3
78461;SHT31;67755;51.986;5.696;2023-03-19T13:11:53;17.6;55.0
78461;SHT31;67755;51.986;5.696;2023-03-19T13:14:31;17.6;53.9
78461;SHT31;67755;51.986;5.696;2023-03-19T13:17:10;17.7;53.3
78461;SHT31;67755;51.986;5.696;2023-03-19T13:19:46;17.8;53.5
78461;SHT31;67755;51.986;5.696;2023-03-19T13:22:21;17.8;52.8
78461;SHT31;67755;51.986;5.696;2023-03-19T13:24:56;17.9;53.2
78461;SHT31;67755;51.986;5.696;2023-03-19T13:27:31;17.9;53.0
78461;SHT31;67755;51.986;5.696;2023-03-19T13:30:15;17.9;53.0
78461;SHT31;67755;51.986;5.696;2023-03-19T13:32:48;18.0;52.9
78461;SHT31;67755;51.986;5.696;2023-03-19T13:35:39;18.0;53.1
78461;SHT31;67755;51.986;5.696;2023-03-19T13:38:19;18.1;52.7
78461;SHT31;67755;51.986;5.696;2023-03-19T13:40:53;18.2;52.3
78461;SHT31;67755;51.986;5.696;2023-03-19T13:44:31;18.2;52.1
78461;SHT31;67755;51.986;5.696;2023-03-19T13:50:25;18.4;51.8
78461;SHT31;67755;51.986;5.696;2023-03-19T13:53:22;18.4;52.4
78461;SHT31;67755;51.986;5.696;2023-03-19T13:55:58;18.4;51.4
78461;SHT31;67755;51.986;5.696;2023-03-19T13:58:28;18.5;51.6
78461;SHT31;67755;51.986;5.696;2023-03-19T14:01:37;18.5;51.8
78461;SHT31;67755;51.986;5.696;2023-03-19T14:04:19;18.5;51.4
78461;SHT31;67755;51.986;5.696;2023-03-19T14:06:52;18.6;51.7
78461;SHT31;67755;51.986;5.696;2023-03-19T14:09:36;18.6;51.8
78461;SHT31;67755;51.986;5.696;2023-03-19T14:12:22;18.7;51.6
78461;SHT31;67755;51.986;5.696;2023-03-19T14:14:56;18.7;50.4
78461;SHT31;67755;51.986;5.696;2023-03-19T14:17:31;18.7;51.0
78461;SHT31;67755;51.986;5.696;2023-03-19T14:20:16;18.8;50.4
78461;SHT31;67755;51.986;5.696;2023-03-19T14:22:54;18.8;50.0
78461;SHT31;67755;51.986;5.696;2023-03-19T14:25:26;18.8;50.5
78461;SHT31;67755;51.986;5.696;2023-03-19T14:27:59;18.8;50.2
78461;SHT31;67755;51.986;5.696;2023-03-19T14:30:34;18.8;49.9
78461;SHT31;67755;51.986;5.696;2023-03-19T14:33:14;18.8;50.3
78461;SHT31;67755;51.986;5.696;2023-03-19T14:35:48;18.8;49.7
78461;SHT31;67755;51.986;5.696;2023-03-19T14:38:27;18.8;49.4
78461;SHT31;67755;51.986;5.696;2023-03-19T14:41:01;18.8;49.5
78461;SHT31;67755;51.986;5.696;2023-03-19T14:43:49;18.8;49.4
78461;SHT31;67755;51.986;5.696;2023-03-19T14:46:27;18.8;49.7
78461;SHT31;67755;51.986;5.696;2023-03-19T14:49:29;18.8;49.5
78461;SHT31;67755;51.986;5.696;2023-03-19T14:52:11;18.8;50.1
78461;SHT31;67755;51.986;5.696;2023-03-19T14:54:47;18.8;49.6
78461;SHT31;67755;51.986;5.696;2023-03-19T14:57:21;18.8;49.8
78461;SHT31;67755;51.986;5.696;2023-03-19T14:59:55;18.7;50.0
78461;SHT31;67755;51.986;5.696;2023-03-19T15:02:38;18.7;50.7
78461;SHT31;67755;51.986;5.696;2023-03-19T15:05:17;18.7;50.6
78461;SHT31;67755;51.986;5.696;2023-03-19T15:07:53;18.7;50.8
78461;SHT31;67755;51.986;5.696;2023-03-19T15:10:31;18.7;50.2
78461;SHT31;67755;51.986;5.696;2023-03-19T15:13:22;18.6;49.3
78461;SHT31;67755;51.986;5.696;2023-03-19T15:16:46;18.6;49.2
78461;SHT31;67755;51.986;5.696;2023-03-19T15:19:26;18.6;50.3
78461;SHT31;67755;51.986;5.696;2023-03-19T15:22:11;18.5;50.5
78461;SHT31;67755;51.986;5.696;2023-03-19T15:24:42;18.5;50.4
78461;SHT31;67755;51.986;5.696;2023-03-19T15:27:21;18.5;50.5
78461;SHT31;67755;51.986;5.696;2023-03-19T15:29:52;18.5;50.0
78461;SHT31;67755;51.986;5.696;2023-03-19T15:32:36;18.5;49.0
78461;SHT31;67755;51.986;5.696;2023-03-19T15:35:09;18.5;49.3
78461;SHT31;67755;51.986;5.696;2023-03-19T15:37:42;18.5;48.9
78461;SHT31;67755;51.986;5.696;2023-03-19T15:40:16;18.5;49.2
78461;SHT31;67755;51.986;5.696;2023-03-19T15:42:50;18.4;48.8
78461;SHT31;67755;51.986;5.696;2023-03-19T15:45:21;18.4;48.9
78461;SHT31;67755;51.986;5.696;2023-03-19T15:48:02;18.4;49.5
78461;SHT31;67755;51.986;5.696;2023-03-19T15:50:36;18.4;48.5
78461;SHT31;67755;51.986;5.696;2023-03-19T15:53:14;18.4;49.6
78461;SHT31;67755;51.986;5.696;2023-03-19T15:55:48;18.4;50.0
78461;SHT31;67755;51.986;5.696;2023-03-19T15:58:21;18.4;48.3
78461;SHT31;67755;51.986;5.696;2023-03-19T16:00:53;18.4;48.5
78461;SHT31;67755;51.986;5.696;2023-03-19T16:03:28;18.3;48.5
78461;SHT31;67755;51.986;5.696;2023-03-19T16:06:01;18.3;48.0
78461;SHT31;67755;51.986;5.696;2023-03-19T16:08:35;18.3;47.9
78461;SHT31;67755;51.986;5.696;2023-03-19T16:11:21;18.3;47.8
78461;SHT31;67755;51.986;5.696;2023-03-19T16:13:55;18.3;47.9
78461;SHT31;67755;51.986;5.696;2023-03-19T16:16:27;18.3;47.7
78461;SHT31;67755;51.986;5.696;2023-03-19T16:18:58;18.2;48.1
78461;SHT31;67755;51.986;5.696;2023-03-19T16:21:35;18.2;48.2
78461;SHT31;67755;51.986;5.696;2023-03-19T16:24:17;18.2;48.2
78461;SHT31;67755;51.986;5.696;2023-03-19T16:26:56;18.2;48.9
78461;SHT31;67755;51.986;5.696;2023-03-19T16:29:28;18.2;49.2
78461;SHT31;67755;51.986;5.696;2023-03-19T16:32:01;18.2;48.9
78461;SHT31;67755;51.986;5.696;2023-03-19T16:34:40;18.2;49.5
78461;SHT31;67755;51.986;5.696;2023-03-19T16:38:10;18.2;49.8
78461;SHT31;67755;51.986;5.696;2023-03-19T16:40:46;18.1;50.0
78461;SHT31;67755;51.986;5.696;2023-03-19T16:43:22;18.1;49.8
78461;SHT31;67755;51.986;5.696;2023-03-19T16:46:04;18.1;50.0
78461;SHT31;67755;51.986;5.696;2023-03-19T16:48:37;18.1;50.5
78461;SHT31;67755;51.986;5.696;2023-03-19T16:51:11;18.1;50.9
78461;SHT31;67755;51.986;5.696;2023-03-19T16:53:42;18.1;50.7
78461;SHT31;67755;51.986;5.696;2023-03-19T16:56:14;18.1;50.6